Terminal Aerodrome Forecast
Issued by NWS El Paso, TX

Home | Current Version | Previous Version | Text Only | Print | Product List | Glossary On
Versions: 1 2 3 4 5 6 7 8 9 10 11 12 13 14
000
FTUS44 KEPZ 161100 RRA
TAFELP
TAF
KELP 161159Z 1612/1712 09008KT 6SM -SHRA SCT015 OVC050
      TEMPO 1612/1614 2SM SHRA BR BKN007 OVC015
     FM161700 10010KT P6SM VCSH SCT015 OVC070
      TEMPO 1617/1621 4SM +TSRA BKN015CB
     FM170000 10012KT 5SM TSRA SCT015 BKN050CB OVC100=

USA.gov is the U.S. government's official web portal to all federal, state and local government web resources and services.